Time;durP1;ratioP1;P1;durP2;ratioP2;P2;SDS_P1;SDS_P2;PMS_P1;PMS_P2;Temp;Humidity;BMP_temperature;BMP_pressure;BME280_temperature;BME280_humidity;BME280_pressure;Samples;Min_cycle;Max_cycle;Signal;HPM_P1;HPM_P2
2023/09/29 00:02:17;;;;;;;15.07;7.18;;;18.60;99.90;;;;;;5083670;28;20187;-77
2023/09/29 00:04:42;;;;;;;12.48;6.97;;;18.60;99.90;;;;;;5081408;28;20012;-78
2023/09/29 00:07:08;;;;;;;12.15;7.28;;;18.60;99.90;;;;;;5075044;28;20052;-77
2023/09/29 00:09:34;;;;;;;13.90;6.75;;;18.60;99.90;;;;;;5079982;28;20074;-76
2023/09/29 00:12:00;;;;;;;11.57;5.40;;;18.60;99.90;;;;;;5084158;28;20024;-76
2023/09/29 00:14:26;;;;;;;7.03;5.55;;;18.60;99.90;;;;;;5074287;28;20028;-78
2023/09/29 00:16:51;;;;;;;10.43;5.65;;;18.70;99.90;;;;;;5074667;28;20017;-78
2023/09/29 00:19:17;;;;;;;12.65;6.32;;;18.70;99.90;;;;;;5073625;28;20039;-77
2023/09/29 00:21:43;;;;;;;9.13;5.55;;;18.70;99.90;;;;;;5088885;28;20013;-76
2023/09/29 00:24:09;;;;;;;12.63;5.88;;;18.70;99.90;;;;;;5090179;28;20121;-78
2023/09/29 00:26:35;;;;;;;12.13;5.70;;;18.60;99.90;;;;;;5083482;28;20080;-76
2023/09/29 00:29:02;;;;;;;9.73;5.22;;;18.60;99.90;;;;;;5088312;28;20060;-77
2023/09/29 00:31:28;;;;;;;13.15;5.57;;;18.70;99.90;;;;;;5090705;28;20049;-78
2023/09/29 00:33:54;;;;;;;10.95;5.90;;;18.70;99.90;;;;;;5082054;28;20020;-77
2023/09/29 00:36:20;;;;;;;8.73;5.07;;;18.70;99.90;;;;;;5089163;28;20046;-78
2023/09/29 00:38:46;;;;;;;8.25;5.55;;;18.70;99.90;;;;;;5087191;28;20032;-77
2023/09/29 00:41:12;;;;;;;11.15;5.53;;;18.60;99.90;;;;;;5064541;28;20020;-77
2023/09/29 00:43:38;;;;;;;10.55;5.88;;;18.60;99.90;;;;;;5080191;28;20020;-78
2023/09/29 00:46:06;;;;;;;10.25;5.28;;;18.60;99.90;;;;;;5080602;28;20020;-77
2023/09/29 00:48:33;;;;;;;7.93;5.20;;;18.70;99.90;;;;;;5089329;28;20028;-77
2023/09/29 00:51:00;;;;;;;9.23;4.45;;;18.70;99.90;;;;;;5067518;28;20119;-77
2023/09/29 00:53:28;;;;;;;9.82;5.93;;;18.70;99.90;;;;;;5062929;28;20032;-78
2023/09/29 00:55:54;;;;;;;17.10;5.25;;;18.70;99.90;;;;;;5072439;28;20030;-76
2023/09/29 00:58:21;;;;;;;12.63;5.60;;;18.70;99.90;;;;;;5087741;28;20082;-77
2023/09/29 01:00:47;;;;;;;8.65;5.00;;;18.70;99.90;;;;;;5072239;28;20494;-78
2023/09/29 01:03:14;;;;;;;9.10;5.30;;;18.70;99.90;;;;;;5088929;28;20484;-77
2023/09/29 01:05:45;;;;;;;5.70;4.80;;;18.60;99.90;;;;;;5072489;28;20023;-77
2023/09/29 01:08:19;;;;;;;8.48;4.75;;;18.70;99.90;;;;;;5060840;28;20069;-78
2023/09/29 01:10:45;;;;;;;8.95;4.47;;;18.70;99.90;;;;;;5075404;28;20016;-76
2023/09/29 01:13:12;;;;;;;8.32;4.53;;;18.70;99.90;;;;;;5073302;28;20039;-78
2023/09/29 01:15:39;;;;;;;6.63;4.47;;;18.70;99.90;;;;;;5087737;28;20030;-77
2023/09/29 01:18:06;;;;;;;7.78;5.15;;;18.70;99.90;;;;;;5072497;28;20028;-77
2023/09/29 01:20:34;;;;;;;7.18;4.53;;;18.70;99.90;;;;;;5068612;28;20027;-76
2023/09/29 01:23:05;;;;;;;7.68;4.28;;;18.80;99.90;;;;;;5077449;28;20087;-78
2023/09/29 01:25:32;;;;;;;11.75;4.55;;;18.80;99.90;;;;;;5069873;28;20024;-77
2023/09/29 01:27:59;;;;;;;7.72;4.35;;;18.80;99.90;;;;;;5081764;28;20411;-78
2023/09/29 01:30:27;;;;;;;7.32;4.57;;;18.80;99.90;;;;;;5070784;28;20031;-76
2023/09/29 01:32:56;;;;;;;5.90;4.22;;;18.80;99.90;;;;;;5090165;28;20008;-78
2023/09/29 01:35:23;;;;;;;7.47;4.57;;;18.80;99.90;;;;;;5075611;28;20392;-76
2023/09/29 01:37:50;;;;;;;10.07;4.63;;;18.70;99.90;;;;;;5067303;28;20084;-78
2023/09/29 01:40:17;;;;;;;7.00;4.40;;;18.70;99.90;;;;;;5087270;28;20388;-77
2023/09/29 01:42:44;;;;;;;7.53;4.22;;;18.70;99.90;;;;;;5076045;28;20025;-77
2023/09/29 01:45:11;;;;;;;7.93;4.45;;;18.80;99.90;;;;;;5083305;28;20021;-78
2023/09/29 01:47:38;;;;;;;8.10;4.45;;;18.80;99.90;;;;;;5072487;28;20027;-78
2023/09/29 01:50:08;;;;;;;6.53;4.07;;;18.80;99.90;;;;;;5062916;28;20020;-77
2023/09/29 01:52:34;;;;;;;5.47;3.13;;;18.80;99.90;;;;;;5086181;28;20115;-77
2023/09/29 01:55:12;;;;;;;10.32;4.22;;;18.80;99.90;;;;;;5066719;28;20170;-78
2023/09/29 01:57:38;;;;;;;6.57;3.72;;;18.80;99.90;;;;;;5071889;28;20073;-77
2023/09/29 02:00:07;;;;;;;4.50;3.47;;;18.80;99.90;;;;;;5080226;28;20837;-77
2023/09/29 02:02:33;;;;;;;5.15;3.78;;;18.80;99.90;;;;;;5070208;28;20123;-78
2023/09/29 02:04:59;;;;;;;5.85;3.65;;;18.80;99.90;;;;;;5081090;28;20043;-77
2023/09/29 02:07:25;;;;;;;4.93;3.88;;;18.80;99.90;;;;;;5064665;28;20109;-81
2023/09/29 02:09:51;;;;;;;6.55;4.00;;;18.80;99.90;;;;;;5082813;28;20028;-77
2023/09/29 02:12:17;;;;;;;5.40;3.50;;;18.90;99.90;;;;;;5083889;28;20013;-77
2023/09/29 02:14:43;;;;;;;7.88;3.95;;;18.90;99.90;;;;;;5069241;28;20033;-77
2023/09/29 02:17:10;;;;;;;7.63;3.92;;;18.80;99.90;;;;;;5072569;28;20305;-77
2023/09/29 02:19:36;;;;;;;6.95;4.25;;;18.90;99.90;;;;;;5080532;28;20061;-77
2023/09/29 02:22:03;;;;;;;8.00;3.83;;;18.90;99.90;;;;;;5088363;28;20107;-78
2023/09/29 02:24:29;;;;;;;5.75;3.38;;;18.90;99.90;;;;;;5087482;28;20020;-77
2023/09/29 02:26:55;;;;;;;4.82;3.90;;;18.90;99.90;;;;;;5072599;28;20013;-77
2023/09/29 02:29:21;;;;;;;4.43;3.47;;;18.90;99.90;;;;;;5083301;28;20029;-77
2023/09/29 02:31:46;;;;;;;6.68;4.00;;;18.90;99.90;;;;;;5081555;28;20022;-77
2023/09/29 02:34:15;;;;;;;7.65;4.15;;;18.90;99.90;;;;;;5075060;28;20450;-77
2023/09/29 02:36:40;;;;;;;6.20;4.38;;;18.90;99.90;;;;;;5079614;28;20108;-78
2023/09/29 02:39:08;;;;;;;5.03;3.72;;;18.90;99.90;;;;;;5087372;28;20060;-78
2023/09/29 02:41:35;;;;;;;9.27;4.10;;;18.90;99.90;;;;;;5075785;28;20039;-77
2023/09/29 02:44:01;;;;;;;7.25;4.28;;;18.90;99.90;;;;;;5072969;28;20388;-77
2023/09/29 02:46:27;;;;;;;8.70;4.20;;;18.80;99.90;;;;;;5086944;28;20024;-77
2023/09/29 02:48:53;;;;;;;9.60;4.32;;;18.90;99.90;;;;;;5091793;28;20043;-77
2023/09/29 02:51:19;;;;;;;7.35;4.22;;;18.90;99.90;;;;;;5077252;28;20036;-76
2023/09/29 02:53:54;;;;;;;8.23;3.80;;;18.90;99.90;;;;;;5079462;28;20387;-77
2023/09/29 02:56:21;;;;;;;8.68;3.83;;;18.90;99.90;;;;;;5090566;28;20028;-77
2023/09/29 02:58:47;;;;;;;6.25;4.43;;;18.90;99.90;;;;;;5071944;28;20046;-77
2023/09/29 03:01:16;;;;;;;5.30;4.20;;;18.90;99.90;;;;;;5094341;28;20016;-77
2023/09/29 03:03:44;;;;;;;6.72;3.85;;;18.90;99.90;;;;;;5084749;28;20433;-77
2023/09/29 03:06:16;;;;;;;5.43;3.80;;;18.90;99.90;;;;;;5075917;28;20024;-77
2023/09/29 03:08:42;;;;;;;7.32;4.10;;;18.90;99.90;;;;;;5069482;28;20025;-77
2023/09/29 03:11:09;;;;;;;5.90;4.05;;;18.90;99.90;;;;;;5074747;28;20402;-78
2023/09/29 03:13:37;;;;;;;6.32;3.90;;;18.90;99.90;;;;;;5072771;28;20028;-76
2023/09/29 03:16:06;;;;;;;6.88;4.20;;;18.90;99.90;;;;;;5086943;28;20028;-78
2023/09/29 03:18:32;;;;;;;5.95;4.22;;;18.90;99.90;;;;;;5068805;28;20056;-76
2023/09/29 03:20:59;;;;;;;8.02;4.45;;;18.90;99.90;;;;;;5075198;28;20081;-77
2023/09/29 03:23:28;;;;;;;8.13;4.72;;;18.90;99.90;;;;;;5077830;28;20044;-77
2023/09/29 03:25:55;;;;;;;5.72;4.07;;;18.80;99.90;;;;;;5084048;28;20754;-78
2023/09/29 03:28:21;;;;;;;6.97;4.22;;;18.90;99.90;;;;;;5087481;28;20031;-78
2023/09/29 03:30:46;;;;;;;8.27;4.05;;;18.90;99.90;;;;;;5092143;28;20048;-77
2023/09/29 03:33:13;;;;;;;5.60;3.90;;;18.90;99.90;;;;;;5075980;28;20063;-78
2023/09/29 03:35:40;;;;;;;8.15;3.90;;;18.90;99.90;;;;;;5074617;28;20021;-78
2023/09/29 03:38:06;;;;;;;10.30;4.18;;;18.90;99.90;;;;;;5069701;28;20040;-78
2023/09/29 03:40:32;;;;;;;7.32;3.90;;;18.90;99.90;;;;;;5069816;28;20480;-77
2023/09/29 03:42:58;;;;;;;9.40;4.03;;;18.90;99.90;;;;;;5090371;28;20036;-77
2023/09/29 03:45:25;;;;;;;7.40;3.78;;;18.90;99.90;;;;;;5075408;28;20039;-77
2023/09/29 03:47:52;;;;;;;7.07;3.92;;;18.90;99.90;;;;;;5073410;28;20365;-78
2023/09/29 03:50:17;;;;;;;7.28;4.10;;;19.00;99.90;;;;;;5065142;28;20072;-77
2023/09/29 03:52:46;;;;;;;6.50;3.97;;;19.00;99.90;;;;;;5078560;28;20043;-78
2023/09/29 03:55:14;;;;;;;5.32;3.45;;;19.00;99.90;;;;;;5079376;28;20032;-77
2023/09/29 03:57:48;;;;;;;5.88;3.70;;;19.10;99.90;;;;;;5074780;28;20027;-77
2023/09/29 04:00:16;;;;;;;8.45;3.80;;;19.10;99.90;;;;;;5087759;28;20031;-77
2023/09/29 04:02:42;;;;;;;14.40;4.05;;;19.00;99.90;;;;;;5064716;28;20069;-77
2023/09/29 04:05:09;;;;;;;10.70;3.95;;;19.00;99.90;;;;;;5072265;28;20020;-77
2023/09/29 04:07:36;;;;;;;12.23;3.88;;;19.00;99.90;;;;;;5075043;28;20068;-77
2023/09/29 04:10:05;;;;;;;8.38;3.78;;;19.00;99.90;;;;;;5083010;28;20023;-75
2023/09/29 04:12:30;;;;;;;5.38;4.15;;;19.00;99.90;;;;;;5074231;28;20050;-77
2023/09/29 04:14:56;;;;;;;6.35;3.90;;;19.00;99.90;;;;;;5070098;28;20021;-78
2023/09/29 04:17:22;;;;;;;5.18;3.63;;;19.00;99.90;;;;;;5084975;28;20025;-77
2023/09/29 04:19:47;;;;;;;8.48;3.72;;;19.00;99.90;;;;;;5079709;28;20020;-78
2023/09/29 04:22:14;;;;;;;8.75;3.92;;;19.00;99.90;;;;;;5075809;28;20031;-77
2023/09/29 04:24:40;;;;;;;4.47;3.38;;;19.00;99.90;;;;;;5069907;28;20502;-78
2023/09/29 04:27:06;;;;;;;7.22;3.75;;;19.00;99.90;;;;;;5067226;28;20024;-76
2023/09/29 04:29:32;;;;;;;6.07;3.25;;;19.10;99.90;;;;;;5072191;28;20488;-77
2023/09/29 04:31:57;;;;;;;9.07;3.50;;;19.00;99.90;;;;;;5066780;28;20031;-77
2023/09/29 04:34:23;;;;;;;5.60;3.40;;;19.10;99.90;;;;;;5067440;28;20022;-78
2023/09/29 04:36:49;;;;;;;6.47;3.88;;;19.10;99.90;;;;;;5091251;28;20039;-77
2023/09/29 04:39:16;;;;;;;5.05;3.83;;;19.10;99.90;;;;;;5071818;28;20063;-77
2023/09/29 04:41:41;;;;;;;5.40;3.55;;;19.10;99.90;;;;;;5068641;28;20020;-77
2023/09/29 04:44:07;;;;;;;5.15;3.55;;;19.10;99.90;;;;;;5088471;28;20039;-77
2023/09/29 04:46:34;;;;;;;7.18;4.40;;;19.10;99.90;;;;;;5063704;28;20143;-75
2023/09/29 04:49:03;;;;;;;5.75;4.10;;;19.10;99.90;;;;;;5076854;28;20020;-77
2023/09/29 04:51:32;;;;;;;5.15;3.90;;;19.10;99.90;;;;;;5086649;28;20024;-77
2023/09/29 04:53:58;;;;;;;5.95;4.05;;;19.20;99.90;;;;;;5068057;28;20032;-75
2023/09/29 04:56:24;;;;;;;8.10;4.45;;;19.20;99.90;;;;;;5074921;28;20028;-78
2023/09/29 04:58:50;;;;;;;7.63;3.88;;;19.20;99.90;;;;;;5075694;28;20115;-76
2023/09/29 05:01:17;;;;;;;5.97;3.72;;;19.20;99.90;;;;;;5083829;28;20037;-77
2023/09/29 05:03:43;;;;;;;5.43;3.45;;;19.20;99.90;;;;;;5081508;28;20012;-77
2023/09/29 05:06:09;;;;;;;5.00;3.58;;;19.20;99.90;;;;;;5084033;28;20493;-76
2023/09/29 05:08:36;;;;;;;5.60;3.72;;;19.20;99.90;;;;;;5067666;28;20488;-77
2023/09/29 05:11:02;;;;;;;6.25;3.67;;;19.20;99.90;;;;;;5078861;28;20039;-77
2023/09/29 05:13:32;;;;;;;5.82;3.63;;;19.20;99.90;;;;;;5088171;28;20035;-78
2023/09/29 05:16:01;;;;;;;6.53;3.70;;;19.30;99.90;;;;;;5084788;28;20150;-78
2023/09/29 05:18:27;;;;;;;4.15;3.75;;;19.30;99.90;;;;;;5076296;28;20034;-78
2023/09/29 05:20:53;;;;;;;6.05;3.80;;;19.30;99.90;;;;;;5067545;28;20130;-77
2023/09/29 05:23:19;;;;;;;4.32;3.67;;;19.30;99.90;;;;;;5077250;28;20028;-77
2023/09/29 05:25:48;;;;;;;6.93;3.80;;;19.30;99.90;;;;;;5070008;28;20054;-77
2023/09/29 05:28:14;;;;;;;4.72;3.22;;;19.40;99.90;;;;;;5065112;28;20028;-75
2023/09/29 05:30:43;;;;;;;4.97;4.13;;;19.30;99.90;;;;;;5069996;28;20032;-80
2023/09/29 05:33:09;;;;;;;5.43;3.97;;;19.40;99.90;;;;;;5070344;28;20060;-77
2023/09/29 05:35:35;;;;;;;6.28;3.40;;;19.40;99.90;;;;;;5071607;28;20021;-76
2023/09/29 05:38:00;;;;;;;4.70;3.25;;;19.30;99.90;;;;;;5077651;28;20032;-77
2023/09/29 05:40:26;;;;;;;5.10;3.80;;;19.40;99.90;;;;;;5089068;28;20030;-77
2023/09/29 05:42:52;;;;;;;5.55;3.88;;;19.40;99.90;;;;;;5084297;28;20025;-77
2023/09/29 05:45:19;;;;;;;5.03;3.05;;;19.50;99.90;;;;;;5072854;28;20058;-77
2023/09/29 05:47:47;;;;;;;4.57;2.90;;;19.50;99.90;;;;;;5077943;28;20025;-77
2023/09/29 05:50:12;;;;;;;10.98;3.22;;;19.50;99.90;;;;;;5066135;28;20511;-77
2023/09/29 05:52:38;;;;;;;3.97;3.50;;;19.60;99.90;;;;;;5074430;28;20044;-78
2023/09/29 05:55:04;;;;;;;4.25;3.53;;;19.60;99.90;;;;;;5088262;28;20094;-77
2023/09/29 05:57:30;;;;;;;5.28;3.25;;;19.60;99.90;;;;;;5078981;28;20032;-77
2023/09/29 05:59:56;;;;;;;4.20;3.40;;;19.60;99.90;;;;;;5076355;28;20428;-78
2023/09/29 06:02:21;;;;;;;5.55;3.55;;;19.70;99.90;;;;;;5084962;28;20021;-78
2023/09/29 06:04:47;;;;;;;5.05;3.30;;;19.70;99.90;;;;;;5086467;28;20028;-77
2023/09/29 06:07:13;;;;;;;6.00;3.10;;;19.70;99.90;;;;;;5068187;28;20040;-76
2023/09/29 06:09:39;;;;;;;4.45;3.28;;;19.80;99.90;;;;;;5081367;28;20031;-76
2023/09/29 06:12:05;;;;;;;6.40;3.13;;;19.80;99.90;;;;;;5072218;28;20024;-77
2023/09/29 06:14:32;;;;;;;6.90;2.83;;;19.80;99.90;;;;;;5085286;28;20136;-77
2023/09/29 06:16:59;;;;;;;4.38;2.58;;;19.80;99.90;;;;;;5086664;28;20035;-76
2023/09/29 06:19:25;;;;;;;3.47;2.88;;;19.90;99.90;;;;;;5084485;28;20511;-77
2023/09/29 06:21:51;;;;;;;3.38;3.08;;;19.90;99.90;;;;;;5090976;28;20368;-76
2023/09/29 06:24:17;;;;;;;3.78;3.30;;;20.00;99.90;;;;;;5080888;28;20028;-77
2023/09/29 06:26:42;;;;;;;9.77;3.90;;;20.00;99.90;;;;;;5059392;28;20433;-76
2023/09/29 06:29:08;;;;;;;5.65;3.47;;;20.00;99.90;;;;;;5055906;28;20029;-77
2023/09/29 06:31:34;;;;;;;4.78;3.20;;;20.00;99.90;;;;;;5075348;28;20100;-77
2023/09/29 06:34:00;;;;;;;6.22;3.70;;;20.00;99.90;;;;;;5064161;28;20078;-77
2023/09/29 06:36:25;;;;;;;3.95;3.38;;;20.00;99.90;;;;;;5071390;28;20028;-76
2023/09/29 06:38:51;;;;;;;6.32;3.70;;;20.00;99.90;;;;;;5071551;28;20079;-77
2023/09/29 06:41:17;;;;;;;4.13;3.17;;;20.10;99.90;;;;;;5071243;28;20058;-77
2023/09/29 06:43:45;;;;;;;7.32;3.70;;;20.20;99.90;;;;;;5077386;28;20027;-77
2023/09/29 06:46:11;;;;;;;5.22;3.35;;;20.10;99.90;;;;;;5070458;28;20394;-76
2023/09/29 06:48:37;;;;;;;7.47;3.50;;;20.20;99.90;;;;;;5070594;28;20032;-77
2023/09/29 06:51:03;;;;;;;4.47;2.83;;;20.30;99.90;;;;;;5091434;28;20040;-77
2023/09/29 06:53:31;;;;;;;4.32;3.25;;;20.20;99.90;;;;;;5073107;28;20533;-76
2023/09/29 06:55:58;;;;;;;6.35;2.88;;;20.30;99.90;;;;;;5063724;28;20021;-76
2023/09/29 06:58:24;;;;;;;5.53;3.15;;;20.40;99.90;;;;;;5075365;28;20055;-77
2023/09/29 07:00:51;;;;;;;3.60;2.53;;;20.40;99.90;;;;;;5064602;28;20025;-76
2023/09/29 07:03:18;;;;;;;6.78;2.97;;;20.50;99.90;;;;;;5073100;28;20028;-78
2023/09/29 07:05:46;;;;;;;5.32;3.35;;;20.50;99.90;;;;;;5083951;28;20051;-77
2023/09/29 07:08:15;;;;;;;7.20;2.83;;;20.50;99.90;;;;;;5080610;28;20024;-77
2023/09/29 07:10:42;;;;;;;3.45;2.65;;;20.50;99.90;;;;;;5085524;28;20024;-78
2023/09/29 07:13:07;;;;;;;7.28;3.00;;;20.50;99.90;;;;;;5089287;28;20028;-76
2023/09/29 07:15:33;;;;;;;5.95;2.90;;;20.50;99.90;;;;;;5076631;28;20035;-76
2023/09/29 07:17:59;;;;;;;3.72;2.95;;;20.50;99.90;;;;;;5076176;28;20044;-76
2023/09/29 07:20:25;;;;;;;3.63;2.92;;;20.50;99.90;;;;;;5079241;28;20026;-76
2023/09/29 07:22:51;;;;;;;6.95;3.25;;;20.50;99.90;;;;;;5097198;28;20035;-77
2023/09/29 07:25:18;;;;;;;6.03;3.22;;;20.50;99.90;;;;;;5073559;28;20383;-78
2023/09/29 07:27:45;;;;;;;7.68;2.95;;;20.60;99.90;;;;;;5087511;28;20024;-78
2023/09/29 07:30:12;;;;;;;5.25;2.70;;;20.60;99.90;;;;;;5088663;28;20074;-78
2023/09/29 07:32:41;;;;;;;7.47;2.80;;;20.60;99.90;;;;;;5076820;28;20036;-76
2023/09/29 07:35:07;;;;;;;3.45;3.08;;;20.50;99.90;;;;;;5074454;28;20039;-77
2023/09/29 07:37:33;;;;;;;5.82;3.05;;;20.60;99.90;;;;;;5078249;28;20368;-78
2023/09/29 07:39:59;;;;;;;3.00;2.58;;;20.60;99.90;;;;;;5093358;28;20042;-77
2023/09/29 07:42:25;;;;;;;5.30;2.60;;;20.60;99.90;;;;;;5082711;28;20029;-77
2023/09/29 07:44:51;;;;;;;6.50;2.47;;;20.70;99.90;;;;;;5083868;28;20446;-77
2023/09/29 07:47:17;;;;;;;2.47;2.20;;;20.80;99.90;;;;;;5078124;28;20020;-76
2023/09/29 07:49:42;;;;;;;5.55;2.97;;;20.80;99.90;;;;;;5087605;28;20020;-76
2023/09/29 07:52:08;;;;;;;7.25;3.00;;;20.80;99.90;;;;;;5082035;28;20040;-77
2023/09/29 07:54:34;;;;;;;3.60;2.63;;;20.90;99.90;;;;;;5084676;28;20032;-77
2023/09/29 07:57:01;;;;;;;5.15;2.92;;;20.90;99.90;;;;;;5085675;28;20082;-77
2023/09/29 07:59:26;;;;;;;6.97;2.83;;;21.00;99.90;;;;;;5088092;28;20112;-77
2023/09/29 08:01:52;;;;;;;4.30;2.58;;;21.10;99.90;;;;;;5078423;28;20111;-77
2023/09/29 08:04:18;;;;;;;5.90;3.00;;;21.10;99.90;;;;;;5067199;28;20039;-78
2023/09/29 08:06:45;;;;;;;6.65;3.05;;;21.20;99.90;;;;;;5070176;28;20422;-76
2023/09/29 08:09:12;;;;;;;4.65;2.65;;;21.20;99.90;;;;;;5077720;28;20025;-77
2023/09/29 08:11:40;;;;;;;5.55;2.67;;;21.30;99.90;;;;;;5063364;28;20024;-76
2023/09/29 08:14:06;;;;;;;5.45;3.40;;;21.30;99.90;;;;;;5077216;28;20069;-77
2023/09/29 08:16:34;;;;;;;5.07;2.90;;;21.40;99.90;;;;;;5078474;28;20436;-76
2023/09/29 08:19:00;;;;;;;6.88;3.20;;;21.50;99.90;;;;;;5089486;28;20146;-76
2023/09/29 08:21:26;;;;;;;5.35;3.42;;;21.50;99.90;;;;;;5074490;28;20062;-77
2023/09/29 08:23:52;;;;;;;6.57;3.40;;;21.50;99.90;;;;;;5085669;28;20052;-76
2023/09/29 08:26:17;;;;;;;3.58;2.60;;;21.40;99.90;;;;;;5070474;28;20047;-77
2023/09/29 08:28:44;;;;;;;4.53;2.95;;;21.50;99.90;;;;;;5077292;28;20377;-77
2023/09/29 08:31:17;;;;;;;4.22;3.20;;;21.60;99.90;;;;;;5087722;28;20029;-76
2023/09/29 08:33:43;;;;;;;8.68;3.47;;;21.60;99.90;;;;;;5086340;28;20031;-76
2023/09/29 08:36:09;;;;;;;3.83;2.92;;;21.70;99.90;;;;;;5082334;28;20032;-76
2023/09/29 08:38:35;;;;;;;5.53;3.78;;;21.70;99.90;;;;;;5067771;28;20016;-76
2023/09/29 08:41:05;;;;;;;6.57;2.90;;;21.60;99.90;;;;;;5070277;28;20032;-77
2023/09/29 08:43:33;;;;;;;6.97;3.60;;;21.80;99.90;;;;;;5084516;28;20090;-77
2023/09/29 08:45:59;;;;;;;5.72;3.53;;;21.80;99.90;;;;;;5069421;28;20032;-76
2023/09/29 08:48:32;;;;;;;5.68;3.10;;;21.80;99.90;;;;;;5066109;28;20024;-77
2023/09/29 08:51:01;;;;;;;7.07;3.63;;;21.90;99.90;;;;;;5067033;28;20036;-76
2023/09/29 08:53:28;;;;;;;6.18;2.97;;;21.90;99.90;;;;;;5083637;28;20059;-77
2023/09/29 08:55:55;;;;;;;7.03;3.60;;;22.00;99.90;;;;;;5086566;28;20069;-76
2023/09/29 08:58:25;;;;;;;5.40;3.60;;;22.00;99.90;;;;;;5067901;28;20044;-76
2023/09/29 09:00:55;;;;;;;6.38;3.22;;;21.90;99.90;;;;;;5066940;28;20024;-76
2023/09/29 09:03:28;;;;;;;5.85;3.40;;;21.90;99.90;;;;;;5067295;28;20024;-76
2023/09/29 09:05:55;;;;;;;;;;;22.00;99.90;;;;;;5075648;28;20016;-76
2023/09/29 09:08:26;;;;;;;7.53;3.95;;;22.00;99.90;;;;;;5059446;28;19910;-77
2023/09/29 09:10:58;;;;;;;3.95;3.15;;;22.20;99.90;;;;;;5081807;28;20028;-76
2023/09/29 09:13:26;;;;;;;;;;;22.20;99.90;;;;;;5086486;28;20027;-76
2023/09/29 09:15:59;;;;;;;6.05;3.50;;;22.30;99.90;;;;;;5070204;28;19927;-76
2023/09/29 09:18:27;;;;;;;8.02;3.90;;;22.30;99.90;;;;;;5074875;28;20494;-75
2023/09/29 09:20:54;;;;;;;10.25;4.63;;;22.20;99.90;;;;;;5086981;28;20027;-76
2023/09/29 09:23:20;;;;;;;8.57;3.83;;;22.30;99.90;;;;;;5080066;28;20025;-76
2023/09/29 09:25:46;;;;;;;10.23;4.10;;;22.20;99.90;;;;;;5071881;28;20009;-76
2023/09/29 09:28:20;;;;;;;8.57;4.40;;;22.30;99.90;;;;;;5088853;28;20074;-76
2023/09/29 09:30:47;;;;;;;10.60;3.97;;;22.30;99.90;;;;;;5064752;28;20019;-76
2023/09/29 09:33:18;;;;;;;7.70;3.67;;;22.30;99.90;;;;;;5087935;28;20024;-76
2023/09/29 09:35:44;;;;;;;7.78;4.18;;;22.30;99.90;;;;;;5076293;28;20024;-76
2023/09/29 09:38:11;;;;;;;10.55;3.67;;;22.30;99.90;;;;;;5074723;28;20035;-77
2023/09/29 09:40:36;;;;;;;7.60;3.75;;;22.30;99.90;;;;;;5096264;28;20103;-77
2023/09/29 09:43:05;;;;;;;7.65;3.72;;;22.30;99.90;;;;;;5086175;28;20487;-77
2023/09/29 09:45:42;;;;;;;7.53;4.15;;;22.40;99.90;;;;;;5083605;28;20044;-77
2023/09/29 09:48:10;;;;;;;8.80;4.35;;;22.50;99.90;;;;;;5088911;28;20016;-75
2023/09/29 09:50:36;;;;;;;8.30;4.20;;;22.50;99.90;;;;;;5072394;28;20032;-76
2023/09/29 09:53:05;;;;;;;13.05;5.47;;;22.60;99.90;;;;;;5067578;28;20028;-77
2023/09/29 09:55:45;;;;;;;11.07;5.00;;;22.70;99.90;;;;;;5065326;28;20032;-76
2023/09/29 09:58:16;;;;;;;10.32;4.70;;;22.70;99.90;;;;;;5078985;28;20078;-76
2023/09/29 10:00:46;;;;;;;9.93;4.93;;;22.80;99.90;;;;;;5070616;28;20384;-77
2023/09/29 10:03:16;;;;;;;7.70;4.18;;;22.90;99.90;;;;;;5064744;28;20016;-77
2023/09/29 10:05:51;;;;;;;10.40;4.15;;;23.10;99.90;;;;;;5081800;28;20111;-76
2023/09/29 10:08:30;;;;;;;10.57;4.35;;;23.10;99.90;;;;;;5059642;28;20039;-76
2023/09/29 10:11:13;;;;;;;9.02;3.97;;;23.00;99.90;;;;;;5071508;28;20024;-76
2023/09/29 10:13:47;;;;;;;7.30;4.30;;;22.80;99.90;;;;;;5072065;28;20076;-76
2023/09/29 10:16:23;;;;;;;10.00;5.30;;;22.70;99.90;;;;;;5077985;28;20169;-76
2023/09/29 10:18:58;;;;;;;6.60;4.05;;;22.60;99.90;;;;;;5071998;28;20029;-77
2023/09/29 10:21:25;;;;;;;8.73;4.75;;;22.60;99.90;;;;;;5072072;28;20070;-77
2023/09/29 10:23:51;;;;;;;8.73;3.90;;;22.50;99.90;;;;;;5080554;28;20074;-77
2023/09/29 10:26:20;;;;;;;10.05;4.30;;;22.50;99.90;;;;;;5070067;28;20428;-76
2023/09/29 10:28:47;;;;;;;10.15;4.45;;;22.50;99.90;;;;;;5067508;28;20033;-76
2023/09/29 10:31:17;;;;;;;7.45;3.97;;;22.50;99.90;;;;;;5058007;28;20357;-77
2023/09/29 10:33:53;;;;;;;7.90;3.67;;;22.60;99.90;;;;;;5069945;28;20020;-77
2023/09/29 10:36:24;;;;;;;11.13;3.70;;;22.70;99.90;;;;;;5088555;28;20028;-77
2023/09/29 10:38:51;;;;;;;8.70;3.75;;;22.80;99.90;;;;;;5073765;28;20108;-77
2023/09/29 10:41:23;;;;;;;7.15;4.40;;;22.90;99.90;;;;;;5075055;28;20012;-77
2023/09/29 10:43:50;;;;;;;12.90;4.10;;;23.00;99.90;;;;;;5062769;28;20067;-77
2023/09/29 10:46:17;;;;;;;7.20;3.40;;;23.00;99.90;;;;;;5096021;28;20016;-77
2023/09/29 10:48:52;;;;;;;12.20;4.28;;;23.10;99.90;;;;;;5085143;28;20055;-77
2023/09/29 10:51:27;;;;;;;6.30;3.67;;;23.20;99.90;;;;;;5081751;28;20479;-76
2023/09/29 10:53:53;;;;;;;10.48;4.75;;;23.20;99.90;;;;;;5086099;28;20020;-77
2023/09/29 10:56:24;;;;;;;8.00;4.05;;;23.20;99.90;;;;;;5070545;28;20032;-77
2023/09/29 10:58:54;;;;;;;8.25;3.75;;;23.10;99.90;;;;;;5064485;28;20035;-76
2023/09/29 11:01:33;;;;;;;7.43;3.20;;;23.10;99.90;;;;;;5080113;28;20436;-77
2023/09/29 11:04:02;;;;;;;6.93;3.20;;;22.90;99.90;;;;;;5074602;28;20031;-77
2023/09/29 11:06:28;;;;;;;9.13;3.92;;;22.90;99.90;;;;;;5094137;28;20068;-77
2023/09/29 11:08:59;;;;;;;9.25;4.22;;;23.00;99.90;;;;;;5083827;28;20017;-76
2023/09/29 11:11:26;;;;;;;9.05;3.97;;;23.00;99.90;;;;;;5078142;28;20024;-77
2023/09/29 11:13:58;;;;;;;10.02;4.57;;;22.90;99.90;;;;;;5082898;28;20418;-76
2023/09/29 11:16:27;;;;;;;16.98;4.75;;;22.80;99.90;;;;;;5093899;28;20039;-77
2023/09/29 11:18:56;;;;;;;8.45;4.35;;;22.80;99.90;;;;;;5069140;28;20024;-77
2023/09/29 11:21:35;;;;;;;7.38;4.60;;;22.70;99.90;;;;;;5077950;28;20025;-77
2023/09/29 11:24:11;;;;;;;9.82;4.53;;;22.60;99.90;;;;;;5078119;28;20031;-78
2023/09/29 11:26:41;;;;;;;6.60;4.00;;;22.60;99.90;;;;;;5093791;28;20491;-78
2023/09/29 11:29:10;;;;;;;13.20;4.28;;;22.60;99.90;;;;;;5079253;28;20495;-78
2023/09/29 11:31:37;;;;;;;10.15;4.60;;;22.70;99.90;;;;;;5080534;28;20031;-78
2023/09/29 11:34:03;;;;;;;9.20;3.83;;;22.60;99.90;;;;;;5085334;28;20035;-77
2023/09/29 11:36:29;;;;;;;6.63;3.85;;;22.70;99.90;;;;;;5068698;28;20036;-78
2023/09/29 11:38:55;;;;;;;6.43;3.10;;;22.80;99.90;;;;;;5075424;28;20044;-77
2023/09/29 11:41:22;;;;;;;5.50;2.60;;;22.90;99.90;;;;;;5086467;28;20016;-77
2023/09/29 11:43:48;;;;;;;5.50;2.85;;;22.90;99.90;;;;;;5075292;28;20369;-77
2023/09/29 11:46:14;;;;;;;4.38;2.75;;;22.90;99.90;;;;;;5083495;28;20420;-78
2023/09/29 11:48:41;;;;;;;3.40;2.47;;;22.90;99.90;;;;;;5083493;28;20103;-77
2023/09/29 11:51:10;;;;;;;2.60;1.92;;;22.90;99.90;;;;;;5074970;28;20089;-77
2023/09/29 11:53:38;;;;;;;3.78;2.30;;;23.00;99.90;;;;;;5080896;28;20059;-77
2023/09/29 11:56:05;;;;;;;4.45;2.38;;;22.90;99.90;;;;;;5090962;28;20730;-77
2023/09/29 11:58:31;;;;;;;4.10;2.50;;;22.90;99.90;;;;;;5077308;28;20107;-77
2023/09/29 12:00:58;;;;;;;4.63;2.72;;;22.90;99.90;;;;;;5090059;28;20024;-77
2023/09/29 12:03:24;;;;;;;6.47;2.60;;;22.90;99.90;;;;;;5072241;28;20028;-77
2023/09/29 12:05:50;;;;;;;8.10;2.25;;;22.80;99.90;;;;;;5089039;28;20419;-77
2023/09/29 12:08:16;;;;;;;4.47;2.70;;;22.80;99.90;;;;;;5105638;28;20020;-78
2023/09/29 12:10:43;;;;;;;5.13;2.35;;;22.70;99.90;;;;;;5083954;28;20020;-77
2023/09/29 12:13:15;;;;;;;6.65;2.85;;;22.70;99.90;;;;;;5085221;28;20088;-77
2023/09/29 12:15:45;;;;;;;4.95;2.95;;;22.70;99.90;;;;;;5076779;28;20027;-77
2023/09/29 12:18:11;;;;;;;8.15;2.67;;;22.70;99.90;;;;;;5077795;28;20024;-82
2023/09/29 12:20:38;;;;;;;6.70;3.40;;;22.60;99.90;;;;;;5081069;28;20024;-82
2023/09/29 12:23:08;;;;;;;7.50;3.50;;;22.60;99.90;;;;;;5074898;28;20451;-81
2023/09/29 12:25:35;;;;;;;6.03;3.00;;;22.50;99.90;;;;;;5071133;28;20016;-82
2023/09/29 12:28:03;;;;;;;6.30;3.25;;;22.30;99.90;;;;;;5078188;28;20058;-79
2023/09/29 12:30:29;;;;;;;7.03;3.78;;;22.30;99.90;;;;;;5087249;28;20050;-78
2023/09/29 12:32:55;;;;;;;5.75;3.17;;;22.30;99.90;;;;;;5078853;28;20065;-77
2023/09/29 12:35:21;;;;;;;4.88;3.08;;;22.30;99.90;;;;;;5069152;28;20024;-77
2023/09/29 12:37:47;;;;;;;6.60;3.20;;;22.30;99.90;;;;;;5084592;28;20020;-79
2023/09/29 12:40:14;;;;;;;7.65;3.90;;;22.30;99.90;;;;;;5070223;28;20032;-79
2023/09/29 12:42:46;;;;;;;8.15;3.40;;;22.30;99.90;;;;;;5079525;28;20031;-79
2023/09/29 12:45:14;;;;;;;6.60;3.55;;;22.20;99.90;;;;;;5066584;28;20123;-78
2023/09/29 12:47:41;;;;;;;7.63;4.38;;;22.30;99.90;;;;;;5080989;28;20016;-78